createdAt,value
2022-10-26T00:01:15.168Z,17.74
2022-10-26T00:03:43.217Z,17.75
2022-10-26T00:06:12.806Z,17.73
2022-10-26T00:08:39.544Z,17.73
2022-10-26T00:11:06.699Z,17.75
2022-10-26T00:13:33.518Z,17.75
2022-10-26T00:18:31.733Z,17.77
2022-10-26T00:21:03.425Z,17.78
2022-10-26T00:23:30.022Z,17.79
2022-10-26T00:25:57.159Z,17.74
2022-10-26T00:28:23.699Z,17.78
2022-10-26T00:30:50.230Z,17.75
2022-10-26T00:33:16.982Z,17.63
2022-10-26T00:35:46.591Z,17.50
2022-10-26T00:38:13.360Z,17.43
2022-10-26T00:40:39.825Z,17.42
2022-10-26T00:43:14.581Z,17.31
2022-10-26T00:45:41.030Z,17.21
2022-10-26T00:48:14.326Z,17.15
2022-10-26T00:50:44.307Z,17.20
2022-10-26T00:53:11.916Z,17.15
2022-10-26T00:55:44.173Z,17.11
2022-10-26T00:58:11.887Z,17.15
2022-10-26T01:00:40.795Z,17.12
2022-10-26T01:03:08.651Z,16.97
2022-10-26T01:05:38.640Z,16.98
2022-10-26T01:08:06.231Z,16.99
2022-10-26T01:10:38.148Z,16.95
2022-10-26T01:13:05.426Z,16.93
2022-10-26T01:15:41.795Z,16.89
2022-10-26T01:18:21.278Z,16.93
2022-10-26T01:20:56.593Z,16.88
2022-10-26T01:23:47.499Z,16.95
2022-10-26T01:26:46.427Z,16.89
2022-10-26T01:29:44.006Z,16.99
2022-10-26T01:32:28.734Z,17.04
2022-10-26T01:35:09.282Z,17.07
2022-10-26T01:37:41.672Z,17.06
2022-10-26T01:40:20.397Z,16.96
2022-10-26T01:42:51.166Z,16.98
2022-10-26T01:45:18.855Z,16.94
2022-10-26T01:47:47.897Z,16.89
2022-10-26T01:50:15.548Z,16.73
2022-10-26T01:52:42.009Z,16.66
2022-10-26T01:55:39.134Z,16.60
2022-10-26T01:58:31.841Z,16.48
2022-10-26T02:01:13.295Z,16.40
2022-10-26T02:03:51.234Z,16.33
2022-10-26T02:06:49.449Z,16.42
2022-10-26T02:09:32.931Z,16.34
2022-10-26T02:12:02.966Z,16.38
2022-10-26T02:14:55.878Z,16.38
2022-10-26T02:17:33.463Z,16.22
2022-10-26T02:20:09.097Z,16.11
2022-10-26T02:22:39.793Z,16.23
2022-10-26T02:25:10.796Z,16.08
2022-10-26T02:27:44.456Z,16.08
2022-10-26T02:30:12.505Z,16.10
2022-10-26T02:32:44.842Z,16.15
2022-10-26T02:35:14.441Z,16.08
2022-10-26T02:37:42.149Z,16.17
2022-10-26T02:40:14.245Z,16.10
2022-10-26T02:42:43.984Z,16.06
2022-10-26T02:45:16.836Z,16.00
2022-10-26T02:47:43.691Z,16.03
2022-10-26T02:50:10.261Z,16.02
2022-10-26T02:52:50.028Z,16.05
2022-10-26T02:55:32.739Z,16.14
2022-10-26T02:58:04.225Z,16.13
2022-10-26T03:00:31.427Z,16.19
2022-10-26T03:02:59.253Z,16.19
2022-10-26T03:05:32.594Z,16.12
2022-10-26T03:08:00.441Z,16.12
2022-10-26T03:10:27.231Z,16.19
2022-10-26T03:12:53.803Z,16.25
2022-10-26T03:15:20.807Z,16.15
2022-10-26T03:17:47.826Z,16.07
2022-10-26T03:20:14.595Z,16.07
2022-10-26T03:22:41.147Z,16.22
2022-10-26T03:27:35.560Z,16.14
2022-10-26T03:30:02.033Z,16.11
2022-10-26T03:32:28.487Z,16.10
2022-10-26T03:34:54.927Z,16.01
2022-10-26T03:37:21.349Z,16.03
2022-10-26T03:39:47.859Z,16.00
2022-10-26T03:42:14.279Z,16.04
2022-10-26T03:44:40.745Z,16.04
2022-10-26T03:47:07.300Z,15.99
2022-10-26T03:49:33.815Z,16.03
2022-10-26T03:52:00.265Z,16.15
2022-10-26T03:54:26.753Z,16.06
2022-10-26T03:56:55.153Z,15.91
2022-10-26T03:59:22.065Z,15.90
2022-10-26T04:01:50.599Z,15.89
2022-10-26T04:04:19.417Z,15.92
2022-10-26T04:09:13.257Z,15.93
2022-10-26T04:11:39.687Z,15.95
2022-10-26T04:14:06.182Z,16.08
2022-10-26T04:16:33.555Z,15.93
2022-10-26T04:19:00.973Z,15.93
2022-10-26T04:21:27.450Z,15.91
2022-10-26T04:23:53.907Z,15.96
2022-10-26T04:26:20.379Z,15.90
2022-10-26T04:28:46.835Z,16.00
2022-10-26T04:31:13.260Z,15.92
2022-10-26T04:33:39.717Z,15.96
2022-10-26T04:36:06.647Z,16.07
2022-10-26T04:38:33.065Z,16.07
2022-10-26T04:40:59.536Z,15.99
2022-10-26T04:43:25.982Z,15.99
2022-10-26T04:45:58.844Z,15.99
2022-10-26T04:51:01.182Z,16.03
2022-10-26T04:53:27.961Z,15.96
2022-10-26T04:55:58.557Z,16.19
2022-10-26T04:58:25.109Z,16.82
2022-10-26T05:00:51.840Z,17.04
2022-10-26T05:03:25.320Z,17.08
2022-10-26T05:05:52.163Z,17.13
2022-10-26T05:08:19.949Z,17.10
2022-10-26T05:10:50.262Z,17.13
2022-10-26T05:13:17.471Z,17.09
2022-10-26T05:15:43.968Z,17.08
2022-10-26T05:18:10.522Z,17.08
2022-10-26T05:20:37.199Z,17.10
2022-10-26T05:23:06.243Z,17.11
2022-10-26T05:25:36.558Z,17.14
2022-10-26T05:28:05.831Z,17.18
2022-10-26T05:30:32.515Z,17.14
2022-10-26T05:33:02.148Z,17.15
2022-10-26T05:35:33.095Z,17.15
2022-10-26T05:38:08.934Z,17.12
2022-10-26T05:40:35.672Z,17.08
2022-10-26T05:43:02.321Z,17.14
2022-10-26T05:45:29.358Z,17.17
2022-10-26T05:47:58.649Z,17.18
2022-10-26T05:50:28.235Z,17.19
2022-10-26T05:52:55.875Z,17.19
2022-10-26T05:55:23.155Z,17.21
2022-10-26T05:57:50.055Z,17.23
2022-10-26T06:00:19.771Z,17.26
2022-10-26T06:02:55.295Z,17.29
2022-10-26T06:05:25.532Z,17.29
2022-10-26T06:07:52.538Z,17.25
2022-10-26T06:10:19.505Z,17.23
2022-10-26T06:12:46.489Z,17.19
2022-10-26T06:15:18.488Z,17.15
2022-10-26T06:18:08.526Z,17.14
2022-10-26T06:21:07.807Z,17.19
2022-10-26T06:23:44.151Z,17.19
2022-10-26T06:26:30.541Z,17.19
2022-10-26T06:29:18.081Z,17.20
2022-10-26T06:31:46.905Z,17.24
2022-10-26T06:34:19.631Z,17.24
2022-10-26T06:36:47.791Z,17.21
2022-10-26T06:39:15.550Z,17.19
2022-10-26T06:41:42.327Z,17.21
2022-10-26T06:44:12.851Z,17.23
2022-10-26T06:46:46.793Z,17.20
2022-10-26T06:49:19.433Z,17.26
2022-10-26T06:51:52.845Z,17.28
2022-10-26T06:54:28.398Z,17.24
2022-10-26T06:56:55.139Z,17.21
2022-10-26T06:59:32.467Z,17.24
2022-10-26T07:02:01.665Z,17.19
2022-10-26T07:04:30.944Z,17.20
2022-10-26T07:06:57.704Z,17.19
2022-10-26T07:09:24.198Z,17.26
2022-10-26T07:11:50.819Z,17.27
2022-10-26T07:14:17.367Z,17.30
2022-10-26T07:16:44.018Z,17.36
2022-10-26T07:19:10.455Z,17.37
2022-10-26T07:21:36.928Z,17.38
2022-10-26T07:24:03.454Z,17.48
2022-10-26T07:26:29.938Z,17.46
2022-10-26T07:28:56.367Z,17.53
2022-10-26T07:31:22.934Z,17.58
2022-10-26T07:33:49.459Z,17.60
2022-10-26T07:36:16.029Z,17.61
2022-10-26T07:38:42.470Z,17.60
2022-10-26T07:41:08.941Z,17.65
2022-10-26T07:43:35.408Z,17.69
2022-10-26T07:46:02.232Z,17.78
2022-10-26T07:48:28.723Z,17.94
2022-10-26T07:50:55.156Z,18.03
2022-10-26T07:53:26.707Z,18.18
2022-10-26T07:55:56.141Z,18.33
2022-10-26T07:58:25.831Z,18.41
2022-10-26T08:00:53.110Z,18.46
2022-10-26T08:03:20.483Z,18.54
2022-10-26T08:05:51.108Z,18.61
2022-10-26T08:08:18.263Z,18.65
2022-10-26T08:10:45.337Z,18.69
2022-10-26T08:13:12.427Z,18.73
2022-10-26T08:15:39.334Z,18.75
2022-10-26T08:18:06.314Z,18.78
2022-10-26T08:20:33.198Z,18.82
2022-10-26T08:23:01.167Z,18.84
2022-10-26T08:25:27.706Z,18.86
2022-10-26T08:27:54.400Z,18.87
2022-10-26T08:30:21.165Z,18.87
2022-10-26T08:32:48.158Z,18.88
2022-10-26T08:35:14.983Z,18.88
2022-10-26T08:37:41.439Z,18.85
2022-10-26T08:40:12.316Z,18.81
2022-10-26T08:42:47.409Z,18.80
2022-10-26T08:45:44.769Z,18.77
2022-10-26T08:48:16.064Z,18.77
2022-10-26T08:50:49.451Z,18.78
2022-10-26T08:53:41.656Z,18.75
2022-10-26T08:56:26.447Z,18.73
2022-10-26T08:59:01.021Z,18.70
2022-10-26T09:01:31.151Z,18.68
2022-10-26T09:03:58.887Z,18.67
2022-10-26T09:06:41.926Z,18.67
2022-10-26T09:09:11.690Z,18.67
2022-10-26T09:11:54.220Z,18.68
2022-10-26T09:14:20.668Z,18.69
2022-10-26T09:16:57.797Z,18.70
2022-10-26T09:19:27.262Z,18.70
2022-10-26T09:22:04.203Z,18.69
2022-10-26T09:24:38.772Z,18.71
2022-10-26T09:27:13.540Z,18.72
2022-10-26T09:29:42.733Z,18.72
2022-10-26T09:32:17.229Z,18.75
2022-10-26T09:34:50.156Z,18.80
2022-10-26T09:37:35.482Z,18.84
2022-10-26T09:40:04.980Z,18.86
2022-10-26T09:42:49.857Z,18.88
2022-10-26T09:45:24.770Z,18.88
2022-10-26T09:47:54.693Z,18.91
2022-10-26T09:50:33.001Z,18.90
2022-10-26T09:52:59.544Z,18.91
2022-10-26T09:55:27.588Z,18.91
2022-10-26T09:57:57.588Z,18.91
2022-10-26T10:00:25.742Z,18.95
2022-10-26T10:02:54.780Z,18.97
2022-10-26T10:05:27.458Z,18.97
2022-10-26T10:08:22.987Z,18.99
2022-10-26T10:11:01.864Z,18.99
2022-10-26T10:13:34.347Z,18.99
2022-10-26T10:16:08.051Z,19.01
2022-10-26T10:18:36.108Z,19.01
2022-10-26T10:21:03.260Z,19.01
2022-10-26T10:23:57.204Z,19.02
2022-10-26T10:26:23.730Z,19.02
2022-10-26T10:28:59.103Z,19.02
2022-10-26T10:31:30.872Z,19.02
2022-10-26T10:33:57.528Z,19.02
2022-10-26T10:36:29.308Z,19.02
2022-10-26T10:38:56.502Z,19.02
2022-10-26T10:41:28.481Z,19.02
2022-10-26T10:44:17.696Z,19.01
2022-10-26T10:46:44.218Z,18.99
2022-10-26T10:49:27.778Z,18.98
2022-10-26T10:51:55.704Z,18.98
2022-10-26T10:54:33.186Z,18.98
2022-10-26T10:57:37.479Z,18.99
2022-10-26T11:00:06.540Z,18.99
2022-10-26T11:02:59.352Z,18.99
2022-10-26T11:05:37.971Z,19.01
2022-10-26T11:08:07.680Z,19.01
2022-10-26T11:10:38.399Z,19.01
2022-10-26T11:13:19.605Z,19.02
2022-10-26T11:15:49.526Z,19.01
2022-10-26T11:18:23.176Z,19.01
2022-10-26T11:21:19.185Z,19.00
2022-10-26T11:23:59.266Z,18.99
2022-10-26T11:26:43.666Z,18.99
2022-10-26T11:29:22.383Z,19.00
2022-10-26T11:31:57.126Z,19.00
2022-10-26T11:34:31.581Z,18.99
2022-10-26T11:37:05.058Z,18.98
2022-10-26T11:40:16.454Z,18.98
2022-10-26T11:43:07.675Z,18.99
2022-10-26T11:46:16.570Z,18.98
2022-10-26T11:49:00.190Z,19.00
2022-10-26T11:51:55.694Z,19.01
2022-10-26T11:54:37.402Z,19.02
2022-10-26T11:57:05.447Z,19.02
2022-10-26T11:59:39.593Z,19.03
2022-10-26T12:02:20.720Z,19.03
2022-10-26T12:04:52.971Z,19.05
2022-10-26T12:07:35.779Z,19.05
2022-10-26T12:10:04.024Z,19.05
2022-10-26T12:12:37.948Z,19.05
2022-10-26T12:15:35.339Z,19.06
2022-10-26T12:18:26.796Z,19.06
2022-10-26T12:21:02.871Z,19.06
2022-10-26T12:23:40.934Z,19.06
2022-10-26T12:26:23.563Z,19.07
2022-10-26T12:29:02.360Z,19.07
2022-10-26T12:31:37.896Z,19.07
2022-10-26T12:34:15.828Z,19.07
2022-10-26T12:36:50.506Z,19.07
2022-10-26T12:39:37.742Z,19.07
2022-10-26T12:42:09.935Z,19.08
2022-10-26T12:44:42.398Z,19.09
2022-10-26T12:47:27.797Z,19.08
2022-10-26T12:49:58.593Z,19.08
2022-10-26T12:52:32.822Z,19.09
2022-10-26T12:55:13.572Z,19.09
2022-10-26T12:57:59.932Z,19.10
2022-10-26T13:00:28.010Z,19.10
2022-10-26T13:03:20.418Z,19.11
2022-10-26T13:06:17.717Z,19.11
2022-10-26T13:08:48.555Z,19.11
2022-10-26T13:11:25.346Z,19.11
2022-10-26T13:13:58.882Z,19.13
2022-10-26T13:16:27.980Z,19.13
2022-10-26T13:18:55.113Z,19.13
2022-10-26T13:21:23.851Z,19.13
2022-10-26T13:23:53.032Z,19.13
2022-10-26T13:26:22.538Z,19.13
2022-10-26T13:28:57.303Z,19.13
2022-10-26T13:31:33.033Z,19.13
2022-10-26T13:37:06.266Z,19.14
2022-10-26T13:39:37.477Z,19.15
2022-10-26T13:42:06.053Z,19.17
2022-10-26T13:44:42.172Z,19.20
2022-10-26T13:47:12.411Z,19.26
2022-10-26T13:49:46.516Z,19.32
2022-10-26T13:52:23.871Z,19.32
2022-10-26T13:55:05.720Z,19.31
2022-10-26T13:57:39.988Z,19.28
2022-10-26T14:00:23.560Z,19.25
2022-10-26T14:02:50.179Z,19.22
2022-10-26T14:05:18.394Z,19.21
2022-10-26T14:07:49.421Z,19.20
2022-10-26T14:10:25.452Z,19.19
2022-10-26T14:12:52.471Z,19.17
2022-10-26T14:15:24.797Z,19.19
2022-10-26T14:17:52.882Z,19.17
2022-10-26T14:20:22.616Z,19.16
2022-10-26T14:22:49.149Z,19.18
2022-10-26T14:25:26.687Z,19.17
2022-10-26T14:28:04.857Z,19.17
2022-10-26T14:30:32.915Z,19.17
2022-10-26T14:32:59.689Z,19.16
2022-10-26T14:35:30.469Z,19.16
2022-10-26T14:38:10.628Z,19.16
2022-10-26T14:40:37.353Z,19.17
2022-10-26T14:43:05.831Z,19.16
2022-10-26T14:45:48.566Z,19.17
2022-10-26T14:48:34.826Z,19.15
2022-10-26T14:51:01.375Z,19.15
2022-10-26T14:53:37.662Z,19.15
2022-10-26T14:56:06.445Z,19.15
2022-10-26T14:58:35.458Z,19.15
2022-10-26T15:01:29.318Z,19.15
2022-10-26T15:04:05.254Z,19.16
2022-10-26T15:06:35.598Z,19.16
2022-10-26T15:09:06.701Z,19.17
2022-10-26T15:11:35.093Z,19.16
2022-10-26T15:14:02.223Z,19.15
2022-10-26T15:16:33.009Z,19.14
2022-10-26T15:19:11.609Z,19.14
2022-10-26T15:21:45.098Z,19.14
2022-10-26T15:24:20.536Z,19.12
2022-10-26T15:26:47.652Z,19.11
2022-10-26T15:29:42.222Z,19.11
2022-10-26T15:32:46.017Z,19.10
2022-10-26T15:35:33.788Z,19.11
2022-10-26T15:38:01.097Z,19.10
2022-10-26T15:40:29.459Z,19.10
2022-10-26T15:42:59.385Z,19.10
2022-10-26T15:45:30.000Z,19.09
2022-10-26T15:47:58.137Z,19.08
2022-10-26T15:50:27.116Z,19.08
2022-10-26T15:53:02.104Z,19.09
2022-10-26T15:55:30.303Z,19.07
2022-10-26T15:57:56.784Z,19.07
2022-10-26T16:00:23.305Z,19.06
2022-10-26T16:02:49.791Z,19.06
2022-10-26T16:05:16.976Z,19.05
2022-10-26T16:07:46.804Z,19.04
2022-10-26T16:10:22.991Z,19.04
2022-10-26T16:12:50.433Z,19.03
2022-10-26T16:15:22.357Z,19.03
2022-10-26T16:17:49.903Z,19.02
2022-10-26T16:20:22.915Z,19.03
2022-10-26T16:22:50.837Z,19.02
2022-10-26T16:25:20.984Z,19.02
2022-10-26T16:27:47.904Z,19.01
2022-10-26T16:30:15.213Z,19.05
2022-10-26T16:32:42.630Z,19.04
2022-10-26T16:35:10.525Z,19.03
2022-10-26T16:37:37.345Z,19.04
2022-10-26T16:40:04.800Z,19.10
2022-10-26T16:42:32.305Z,19.15
2022-10-26T16:45:02.544Z,19.16
2022-10-26T16:47:32.240Z,19.13
2022-10-26T16:49:58.681Z,19.07
2022-10-26T16:52:25.178Z,19.05
2022-10-26T16:54:51.913Z,19.03
2022-10-26T16:57:18.405Z,19.02
2022-10-26T16:59:44.884Z,18.97
2022-10-26T17:02:14.714Z,18.93
2022-10-26T17:04:41.311Z,18.90
2022-10-26T17:07:07.738Z,18.89
2022-10-26T17:09:34.236Z,18.86
2022-10-26T17:12:02.129Z,18.84
2022-10-26T17:14:29.088Z,18.83
2022-10-26T17:16:55.565Z,18.86
2022-10-26T17:19:22.007Z,18.85
2022-10-26T17:21:49.596Z,18.87
2022-10-26T17:24:16.082Z,18.89
2022-10-26T17:26:42.737Z,18.87
2022-10-26T17:31:41.101Z,18.91
2022-10-26T17:34:07.526Z,18.89
2022-10-26T17:36:34.277Z,18.88
2022-10-26T17:39:01.004Z,18.86
2022-10-26T17:41:28.124Z,18.86
2022-10-26T17:43:54.613Z,18.85
2022-10-26T17:46:26.004Z,18.86
2022-10-26T17:48:59.930Z,18.84
2022-10-26T17:51:28.634Z,18.82
2022-10-26T17:53:55.774Z,18.81
2022-10-26T17:56:24.126Z,18.81
2022-10-26T17:58:55.140Z,18.82
2022-10-26T18:01:22.426Z,18.82
2022-10-26T18:03:48.994Z,18.83
2022-10-26T18:06:17.235Z,18.81
2022-10-26T18:08:44.782Z,18.77
2022-10-26T18:11:26.209Z,18.76
2022-10-26T18:13:57.161Z,18.77
2022-10-26T18:16:25.489Z,18.76
2022-10-26T18:19:00.668Z,18.73
2022-10-26T18:21:28.575Z,18.73
2022-10-26T18:23:55.927Z,18.73
2022-10-26T18:26:24.460Z,18.73
2022-10-26T18:28:50.943Z,18.72
2022-10-26T18:31:22.652Z,18.72
2022-10-26T18:33:49.576Z,18.71
2022-10-26T18:36:18.082Z,18.70
2022-10-26T18:38:46.823Z,18.67
2022-10-26T18:41:15.234Z,18.70
2022-10-26T18:43:50.572Z,18.70
2022-10-26T18:46:20.763Z,18.70
2022-10-26T18:48:48.169Z,18.68
2022-10-26T18:51:17.906Z,18.68
2022-10-26T18:53:45.773Z,18.71
2022-10-26T18:56:15.537Z,18.69
2022-10-26T18:58:43.747Z,18.63
2022-10-26T19:01:19.235Z,18.63
2022-10-26T19:03:47.774Z,18.60
2022-10-26T19:06:19.784Z,18.60
2022-10-26T19:08:46.830Z,18.57
2022-10-26T19:11:16.002Z,18.56
2022-10-26T19:13:42.823Z,18.57
2022-10-26T19:16:21.884Z,18.56
2022-10-26T19:19:00.070Z,18.57
2022-10-26T19:21:30.742Z,18.59
2022-10-26T19:23:59.538Z,18.66
2022-10-26T19:26:33.451Z,18.63
2022-10-26T19:29:06.430Z,18.55
2022-10-26T19:31:33.756Z,18.54
2022-10-26T19:34:00.779Z,18.62
2022-10-26T19:36:27.757Z,18.68
2022-10-26T19:38:54.717Z,18.68
2022-10-26T19:41:23.429Z,18.66
2022-10-26T19:43:50.113Z,18.64
2022-10-26T19:46:19.272Z,18.65
2022-10-26T19:48:54.033Z,18.68
2022-10-26T19:51:21.102Z,18.70
2022-10-26T19:53:47.829Z,18.74
2022-10-26T19:56:15.687Z,18.75
2022-10-26T19:58:43.876Z,18.64
2022-10-26T20:01:12.408Z,18.52
2022-10-26T20:03:38.974Z,18.51
2022-10-26T20:06:08.469Z,18.59
2022-10-26T20:08:38.496Z,18.52
2022-10-26T20:11:08.956Z,18.46
2022-10-26T20:13:39.549Z,18.51
2022-10-26T20:16:07.520Z,18.48
2022-10-26T20:18:34.726Z,18.41
2022-10-26T20:21:01.288Z,18.44
2022-10-26T20:23:27.789Z,18.54
2022-10-26T20:25:55.713Z,18.58
2022-10-26T20:28:22.233Z,18.36
2022-10-26T20:30:49.616Z,18.24
2022-10-26T20:33:16.550Z,18.15
2022-10-26T20:35:43.000Z,18.00
2022-10-26T20:38:18.708Z,18.03
2022-10-26T20:40:53.450Z,17.97
2022-10-26T20:43:20.265Z,17.46
2022-10-26T20:45:47.165Z,17.18
2022-10-26T20:48:14.424Z,16.95
2022-10-26T20:50:44.578Z,16.79
2022-10-26T20:53:15.304Z,16.77
2022-10-26T20:55:59.271Z,17.04
2022-10-26T20:58:39.856Z,17.63
2022-10-26T21:01:28.998Z,17.84
2022-10-26T21:03:58.337Z,17.96
2022-10-26T21:06:25.987Z,18.15
2022-10-26T21:08:53.900Z,18.21
2022-10-26T21:11:21.618Z,18.34
2022-10-26T21:13:49.371Z,18.31
2022-10-26T21:16:16.956Z,18.43
2022-10-26T21:18:43.867Z,18.45
2022-10-26T21:21:10.613Z,18.40
2022-10-26T21:23:39.474Z,18.43
2022-10-26T21:26:06.339Z,18.43
2022-10-26T21:28:46.920Z,18.33
2022-10-26T21:31:15.865Z,18.23
2022-10-26T21:33:43.014Z,18.17
2022-10-26T21:36:14.022Z,18.11
2022-10-26T21:38:42.841Z,18.06
2022-10-26T21:41:12.402Z,18.00
2022-10-26T21:43:41.640Z,17.89
2022-10-26T21:46:09.376Z,17.91
2022-10-26T21:48:36.269Z,17.93
2022-10-26T21:51:04.837Z,17.81
2022-10-26T21:53:31.543Z,17.84
2022-10-26T21:56:02.373Z,17.86
2022-10-26T21:58:29.905Z,17.84
2022-10-26T22:01:10.729Z,17.99
2022-10-26T22:03:38.121Z,18.19
2022-10-26T22:06:05.651Z,18.30
2022-10-26T22:08:32.604Z,18.32
2022-10-26T22:11:04.590Z,18.26
2022-10-26T22:13:31.026Z,18.22
2022-10-26T22:16:16.695Z,18.12
2022-10-26T22:18:45.628Z,18.08
2022-10-26T22:21:13.449Z,18.10
2022-10-26T22:23:41.735Z,18.17
2022-10-26T22:26:23.027Z,18.13
2022-10-26T22:28:56.226Z,18.08
2022-10-26T22:34:07.604Z,17.97
2022-10-26T22:36:35.261Z,17.79
2022-10-26T22:39:01.879Z,17.72
2022-10-26T22:41:28.489Z,17.74
2022-10-26T22:43:54.963Z,17.76
2022-10-26T22:46:23.910Z,17.80
2022-10-26T22:48:54.790Z,17.93
2022-10-26T22:51:22.715Z,17.88
2022-10-26T22:53:54.192Z,17.88
2022-10-26T22:56:21.712Z,17.91
2022-10-26T22:58:48.206Z,17.89
2022-10-26T23:01:17.030Z,17.94
2022-10-26T23:03:44.116Z,17.85
2022-10-26T23:06:13.360Z,17.88
2022-10-26T23:08:40.659Z,17.81
2022-10-26T23:11:10.379Z,17.86
2022-10-26T23:13:37.145Z,17.91
2022-10-26T23:16:12.228Z,17.94
2022-10-26T23:18:38.896Z,17.84
2022-10-26T23:21:06.716Z,17.89
2022-10-26T23:23:33.538Z,18.00
2022-10-26T23:26:14.255Z,18.03
2022-10-26T23:28:41.888Z,18.02
2022-10-26T23:31:12.885Z,18.02
2022-10-26T23:33:39.359Z,18.00
2022-10-26T23:36:06.085Z,18.01
2022-10-26T23:38:32.569Z,18.08
2022-10-26T23:41:00.249Z,18.06
2022-10-26T23:43:27.940Z,18.05
2022-10-26T23:45:55.472Z,18.05
2022-10-26T23:48:22.715Z,17.98
2022-10-26T23:50:50.251Z,17.86
2022-10-26T23:53:19.961Z,17.88
2022-10-26T23:55:47.339Z,17.99
2022-10-26T23:58:14.785Z,18.19
